Time;durP1;ratioP1;P1;durP2;ratioP2;P2;SDS_P1;SDS_P2;PMS_P1;PMS_P2;Temp;Humidity;BMP_temperature;BMP_pressure;BME280_temperature;BME280_humidity;BME280_pressure;Samples;Min_cycle;Max_cycle;Signal;HPM_P1;HPM_P2
2023/01/20 00:00:28;;;;;;;5.00;4.50;;;;;;;10.01;100.00;93944.94;5052798;28;20432;-79
2023/01/20 00:02:54;;;;;;;7.20;4.97;;;;;;;10.14;100.00;93946.22;5052501;28;20453;-80
2023/01/20 00:05:21;;;;;;;5.67;4.97;;;;;;;10.13;100.00;93954.22;5053058;28;20865;-79
2023/01/20 00:07:48;;;;;;;6.83;4.67;;;;;;;9.94;100.00;93969.13;5052957;28;20809;-79
2023/01/20 00:10:15;;;;;;;5.30;4.27;;;;;;;10.13;100.00;93980.44;5052278;28;20499;-80
2023/01/20 00:12:42;;;;;;;7.00;3.90;;;;;;;10.16;100.00;93974.91;5001487;28;20444;-79
2023/01/20 00:15:11;;;;;;;7.80;3.70;;;;;;;10.30;100.00;93987.50;5052728;28;20443;-79
2023/01/20 00:17:38;;;;;;;6.80;4.07;;;;;;;10.36;100.00;94000.00;5055053;28;20444;-80
2023/01/20 00:20:05;;;;;;;9.50;4.67;;;;;;;10.00;100.00;93972.09;5053532;28;20457;-80
2023/01/20 00:22:33;;;;;;;5.23;3.67;;;;;;;9.49;100.00;93945.53;5002694;28;20467;-79
2023/01/20 00:24:59;;;;;;;3.57;2.20;;;;;;;9.34;100.00;93893.84;5053745;28;20962;-80
2023/01/20 00:27:26;;;;;;;4.43;4.13;;;;;;;9.15;100.00;93858.94;5053331;28;20456;-80
2023/01/20 00:30:11;;;;;;;1.80;1.60;;;;;;;9.04;100.00;93856.53;4992026;28;20481;-80
2023/01/20 00:32:43;;;;;;;1.57;1.47;;;;;;;9.28;100.00;93853.38;4942953;28;20443;-80
2023/01/20 00:35:10;;;;;;;1.00;0.83;;;;;;;9.23;100.00;93837.25;4992671;28;20457;-80
2023/01/20 00:37:37;;;;;;;1.40;1.30;;;;;;;9.21;100.00;93800.75;4943800;28;20438;-80
2023/01/20 00:40:04;;;;;;;2.63;1.07;;;;;;;9.35;100.00;93780.28;4992482;28;20953;-79
2023/01/20 00:42:31;;;;;;;1.30;1.00;;;;;;;9.47;100.00;93774.66;4992834;28;20451;-80
2023/01/20 00:44:58;;;;;;;2.87;1.00;;;;;;;9.55;100.00;93766.06;4992913;28;20444;-80
2023/01/20 00:47:26;;;;;;;1.33;0.90;;;;;;;9.65;100.00;93761.56;4992777;28;20455;-80
2023/01/20 00:49:53;;;;;;;1.20;0.97;;;;;;;9.83;100.00;93758.88;4993141;28;20914;-80
2023/01/20 00:52:20;;;;;;;1.63;1.17;;;;;;;9.92;100.00;93769.28;4992550;28;20456;-80
2023/01/20 00:54:47;;;;;;;1.10;1.00;;;;;;;10.00;100.00;93762.44;4996530;28;20448;-79
2023/01/20 00:57:14;;;;;;;1.10;0.93;;;;;;;10.08;100.00;93752.81;4997970;28;21018;-80
2023/01/20 00:59:40;;;;;;;1.30;1.20;;;;;;;10.16;100.00;93754.69;4995038;28;20448;-79
2023/01/20 01:02:07;;;;;;;1.10;1.00;;;;;;;10.06;100.00;93762.66;4994183;28;20452;-80
2023/01/20 01:04:35;;;;;;;1.10;1.00;;;;;;;10.02;100.00;93750.00;4992600;28;20498;-80
2023/01/20 01:07:02;;;;;;;1.20;1.00;;;;;;;10.17;100.00;93751.91;5012421;28;20495;-80
2023/01/20 01:09:29;;;;;;;1.10;1.00;;;;;;;10.10;100.00;93765.78;5056463;28;20488;-80
2023/01/20 01:11:55;;;;;;;1.47;0.93;;;;;;;9.86;99.41;93762.06;5058980;28;20445;-80
2023/01/20 01:14:22;;;;;;;1.40;1.30;;;;;;;9.69;98.69;93762.06;5057346;28;20448;-80
2023/01/20 01:16:49;;;;;;;1.53;1.20;;;;;;;9.55;100.00;93758.22;5056258;28;20445;-80
2023/01/20 01:19:18;;;;;;;5.90;1.63;;;;;;;9.68;100.00;93766.50;5055867;28;20954;-80
2023/01/20 01:21:46;;;;;;;3.70;3.37;;;;;;;9.71;100.00;93765.38;5055655;28;20441;-80
2023/01/20 01:24:13;;;;;;;2.17;1.97;;;;;;;9.61;100.00;93770.69;5003588;28;20534;-80
2023/01/20 01:26:39;;;;;;;1.60;1.50;;;;;;;9.61;100.00;93750.56;5055598;28;20456;-79
2023/01/20 01:29:06;;;;;;;1.10;1.00;;;;;;;9.51;100.00;93754.22;5055390;28;20490;-79
2023/01/20 01:31:33;;;;;;;0.97;0.80;;;;;;;9.43;100.00;93754.16;5055699;28;20448;-80
2023/01/20 01:34:00;;;;;;;1.10;0.90;;;;;;;9.55;100.00;93750.34;5055448;28;20452;-80
2023/01/20 01:36:27;;;;;;;1.50;1.00;;;;;;;9.41;100.00;93748.28;5020518;28;20439;-80
2023/01/20 01:38:55;;;;;;;2.17;1.43;;;;;;;9.09;100.00;93743.56;5036479;28;20453;-79
2023/01/20 01:41:22;;;;;;;2.47;1.90;;;;;;;8.58;100.00;93737.97;5055543;28;20447;-79
2023/01/20 01:44:04;;;;;;;1.90;1.57;;;;;;;8.51;100.00;93736.09;5055670;28;20459;-79
2023/01/20 01:46:31;;;;;;;1.33;1.23;;;;;;;8.26;100.00;93741.00;5055438;28;20983;-80
2023/01/20 01:49:01;;;;;;;3.40;1.33;;;;;;;8.30;100.00;93747.56;5055411;28;20478;-79
2023/01/20 01:51:31;;;;;;;4.20;1.30;;;;;;;8.23;100.00;93750.91;5004247;28;20858;-79
2023/01/20 01:54:05;;;;;;;1.20;1.10;;;;;;;8.23;100.00;93750.91;5055416;28;20443;-79
2023/01/20 01:56:33;;;;;;;1.97;1.40;;;;;;;8.26;100.00;93746.22;5055408;28;20851;-79
2023/01/20 01:59:02;;;;;;;1.77;1.50;;;;;;;8.24;100.00;93747.34;5055036;28;20479;-79
2023/01/20 02:01:30;;;;;;;2.80;1.63;;;;;;;8.23;100.00;93750.91;5054939;28;20455;-79
2023/01/20 02:04:02;;;;;;;1.60;1.50;;;;;;;8.25;100.00;93741.97;5054712;28;20934;-79
2023/01/20 02:06:35;;;;;;;1.30;1.00;;;;;;;8.16;100.00;93745.44;5054904;28;20789;-80
2023/01/20 02:09:05;;;;;;;1.30;1.20;;;;;;;8.18;100.00;93742.69;5054598;28;20906;-79
2023/01/20 02:11:36;;;;;;;1.50;1.13;;;;;;;8.18;100.00;93725.22;5054849;28;20448;-80
2023/01/20 02:14:04;;;;;;;1.30;0.90;;;;;;;8.22;100.00;93715.31;5054580;28;20453;-79
2023/01/20 02:16:42;;;;;;;1.07;0.97;;;;;;;8.20;100.00;93705.00;5054477;28;20446;-79
2023/01/20 02:19:31;;;;;;;1.83;1.30;;;;;;;8.15;100.00;93719.47;5054363;28;20457;-79
2023/01/20 02:22:12;;;;;;;1.30;1.20;;;;;;;8.14;100.00;93721.25;5054023;28;20466;-80
2023/01/20 02:25:24;;;;;;;1.57;1.17;;;;;;;8.12;100.00;93714.53;5054459;28;20549;-80
2023/01/20 02:28:20;;;;;;;1.40;1.30;;;;;;;8.21;100.00;93714.47;5054244;28;20844;-79
2023/01/20 02:31:25;;;;;;;1.20;1.10;;;;;;;8.13;100.00;93709.16;4921740;29;20478;-80
2023/01/20 02:33:59;;;;;;;1.67;1.57;;;;;;;8.17;100.00;93704.47;4954218;29;20445;-80
2023/01/20 02:36:32;;;;;;;1.13;0.90;;;;;;;8.18;100.00;93695.66;4954026;29;20514;-79
2023/01/20 02:39:03;;;;;;;1.10;1.00;;;;;;;8.29;100.00;93680.59;4954024;29;20445;-79
2023/01/20 02:41:38;;;;;;;1.30;1.03;;;;;;;8.31;100.00;93673.44;4953968;29;21007;-79
2023/01/20 02:44:16;;;;;;;1.20;1.10;;;;;;;8.39;100.00;93670.13;4953992;29;20448;-79
2023/01/20 02:46:50;;;;;;;2.70;1.20;;;;;;;8.61;100.00;93661.84;4953881;29;20946;-80
2023/01/20 02:49:25;;;;;;;3.60;1.47;;;;;;;8.67;100.00;93665.66;4953662;29;20483;-79
2023/01/20 02:51:56;;;;;;;1.40;1.10;;;;;;;8.63;100.00;93665.13;4938111;29;20443;-79
2023/01/20 02:54:27;;;;;;;1.33;1.23;;;;;;;8.59;100.00;93668.19;4953807;29;20888;-79
2023/01/20 02:56:56;;;;;;;1.33;1.20;;;;;;;8.50;100.00;93664.69;4953843;29;20439;-79
2023/01/20 02:59:27;;;;;;;1.10;0.90;;;;;;;8.50;100.00;93653.41;4953661;29;20446;-79
2023/01/20 03:02:01;;;;;;;1.37;1.10;;;;;;;8.59;100.00;93666.41;4953506;29;20484;-79
2023/01/20 03:04:33;;;;;;;1.20;1.10;;;;;;;8.59;100.00;93669.03;4953954;29;20917;-80
2023/01/20 03:07:03;;;;;;;1.70;1.20;;;;;;;8.79;100.00;93668.88;4958162;28;20459;-80
2023/01/20 03:09:32;;;;;;;4.07;1.17;;;;;;;8.66;100.00;93680.53;5053376;28;20551;-79
2023/01/20 03:12:06;;;;;;;1.30;0.97;;;;;;;8.69;100.00;93672.41;5053728;28;20456;-80
2023/01/20 03:14:33;;;;;;;1.30;1.00;;;;;;;8.69;100.00;93676.81;5002270;28;20485;-79
2023/01/20 03:17:01;;;;;;;1.30;1.17;;;;;;;8.75;100.00;93670.16;5053409;28;20447;-79
2023/01/20 03:19:29;;;;;;;1.60;1.13;;;;;;;8.70;100.00;93673.22;5053621;28;20438;-79
2023/01/20 03:21:57;;;;;;;4.00;1.47;;;;;;;8.73;100.00;93680.78;5053196;28;20497;-80
2023/01/20 03:24:26;;;;;;;1.33;1.23;;;;;;;8.62;100.00;93671.34;5053356;28;20483;-79
2023/01/20 03:26:54;;;;;;;1.60;1.40;;;;;;;8.51;100.00;93668.94;5053746;28;20481;-79
2023/01/20 03:29:20;;;;;;;1.47;1.10;;;;;;;8.52;100.00;93675.81;5053200;28;20485;-79
2023/01/20 03:31:51;;;;;;;1.10;1.00;;;;;;;8.58;100.00;93667.38;5001138;28;20942;-79
2023/01/20 03:34:21;;;;;;;1.27;1.17;;;;;;;8.62;100.00;93673.94;5053225;28;20451;-79
2023/01/20 03:36:52;;;;;;;1.40;1.30;;;;;;;8.80;100.00;93679.19;5053071;28;20442;-80
2023/01/20 03:39:19;;;;;;;5.20;1.63;;;;;;;8.98;100.00;93680.03;5052986;28;20443;-80
2023/01/20 03:41:59;;;;;;;1.40;1.30;;;;;;;9.19;100.00;93681.50;5001611;28;20458;-80
2023/01/20 03:44:33;;;;;;;6.23;1.33;;;;;;;9.08;100.00;93672.09;5053404;28;20449;-79
2023/01/20 03:47:08;;;;;;;2.20;1.33;;;;;;;9.29;100.00;93683.06;5053258;28;20447;-80
2023/01/20 03:49:43;;;;;;;1.33;1.17;;;;;;;9.49;100.00;93675.00;5052821;28;20509;-80
2023/01/20 03:52:21;;;;;;;2.13;1.33;;;;;;;9.65;100.00;93656.78;5053163;28;20526;-80
2023/01/20 03:54:52;;;;;;;2.07;1.87;;;;;;;9.65;100.00;93646.31;5052776;28;20824;-80
2023/01/20 03:57:25;;;;;;;2.20;2.00;;;;;;;9.72;100.00;93636.03;5052977;28;20448;-80
2023/01/20 03:59:53;;;;;;;7.07;1.63;;;;;;;9.77;100.00;93639.00;5052651;28;20448;-80
2023/01/20 04:02:22;;;;;;;2.90;1.70;;;;;;;9.81;100.00;93646.38;5052738;28;20449;-80
2023/01/20 04:04:50;;;;;;;2.13;1.30;;;;;;;9.78;100.00;93633.59;5052626;28;20441;-80
2023/01/20 04:07:21;;;;;;;1.50;1.40;;;;;;;9.74;100.00;93628.84;5052810;28;20446;-80
2023/01/20 04:09:52;;;;;;;1.87;1.70;;;;;;;9.63;100.00;93630.75;5052568;28;20545;-80
2023/01/20 04:12:19;;;;;;;2.43;1.40;;;;;;;9.73;100.00;93635.06;5052896;28;20846;-80
2023/01/20 04:14:46;;;;;;;7.17;1.63;;;;;;;9.80;100.00;93623.78;5052512;28;20947;-80
2023/01/20 04:17:13;;;;;;;6.77;3.90;;;;;;;9.78;100.00;93612.66;5052902;28;20436;-80
2023/01/20 04:19:40;;;;;;;3.63;2.63;;;;;;;9.83;100.00;93606.94;5052880;28;20443;-80
2023/01/20 04:22:12;;;;;;;5.40;2.00;;;;;;;9.92;100.00;93601.59;5052320;28;20451;-80
2023/01/20 04:24:44;;;;;;;2.67;2.40;;;;;;;10.04;100.00;93596.06;5052039;28;20870;-80
2023/01/20 04:27:11;;;;;;;6.80;5.20;;;;;;;9.92;100.00;93596.34;5053040;28;20973;-80
2023/01/20 04:29:40;;;;;;;10.00;7.60;;;;;;;10.00;100.00;93605.22;5017192;28;21036;-80
2023/01/20 04:32:07;;;;;;;2.90;2.60;;;;;;;9.98;100.00;93602.75;5052759;28;20452;-80
2023/01/20 04:34:34;;;;;;;2.83;2.50;;;;;;;10.02;100.00;93595.38;5052458;28;20462;-80
2023/01/20 04:37:01;;;;;;;2.97;2.77;;;;;;;10.08;100.00;93590.31;5052335;28;20438;-80
2023/01/20 04:39:27;;;;;;;4.63;4.23;;;;;;;10.07;100.00;93588.69;5052386;28;20502;-80
2023/01/20 04:41:56;;;;;;;3.60;3.40;;;;;;;10.14;100.00;93594.13;5052292;28;20449;-80
2023/01/20 04:44:23;;;;;;;2.80;2.60;;;;;;;10.07;100.00;93593.09;5054636;28;20445;-80
2023/01/20 04:46:50;;;;;;;3.20;3.00;;;;;;;10.16;100.00;93595.63;5056204;28;20449;-80
2023/01/20 04:49:17;;;;;;;3.33;3.13;;;;;;;10.24;100.00;93600.09;5056271;28;20495;-80
2023/01/20 04:51:43;;;;;;;3.97;3.57;;;;;;;10.33;100.00;93603.53;5056186;28;20544;-80
2023/01/20 04:54:11;;;;;;;7.00;3.30;;;;;;;10.34;100.00;93600.75;5056295;28;20457;-80
2023/01/20 04:56:38;;;;;;;5.10;3.23;;;;;;;10.38;100.00;93591.59;5021111;28;20513;-80
2023/01/20 04:59:06;;;;;;;3.53;3.23;;;;;;;10.43;100.00;93589.31;5056201;28;21012;-80
2023/01/20 05:01:33;;;;;;;3.50;3.20;;;;;;;10.50;100.00;93579.81;5056198;28;20502;-80
2023/01/20 05:04:02;;;;;;;5.37;2.53;;;;;;;10.55;100.00;93587.19;5055979;28;20454;-80
2023/01/20 05:06:28;;;;;;;4.30;2.93;;;;;;;10.58;100.00;93599.19;5057391;28;20921;-80
2023/01/20 05:08:55;;;;;;;15.57;8.27;;;;;;;10.59;100.00;93600.81;5006216;28;20452;-82
2023/01/20 05:11:22;;;;;;;21.73;12.07;;;;;;;10.60;100.00;93600.66;5056912;28;20461;-83
2023/01/20 05:13:49;;;;;;;9.80;7.87;;;;;;;10.66;100.00;93609.66;5038431;28;20441;-85
2023/01/20 05:16:22;;;;;;;9.03;5.73;;;;;;;10.64;100.00;93611.63;5057207;28;20456;-81
2023/01/20 05:18:49;;;;;;;6.63;4.40;;;;;;;10.52;100.00;93598.84;5074539;28;20444;-83
2023/01/20 05:21:16;;;;;;;5.33;4.83;;;;;;;10.59;100.00;93629.66;5076433;28;20456;-80
2023/01/20 05:23:43;;;;;;;6.90;4.33;;;;;;;10.54;100.00;93625.72;5076562;28;21192;-82
2023/01/20 05:26:10;;;;;;;9.03;3.83;;;;;;;10.57;100.00;93621.13;5076276;28;20479;-80
2023/01/20 05:28:37;;;;;;;11.33;5.63;;;;;;;10.65;100.00;93632.47;5025354;28;20833;-79
2023/01/20 05:31:04;;;;;;;17.77;10.17;;;;;;;10.54;100.00;93648.50;5079215;28;20491;-80
2023/01/20 05:33:32;;;;;;;16.93;8.33;;;;;;;10.52;100.00;93635.56;5076226;28;20447;-80
2023/01/20 05:35:59;;;;;;;12.27;8.00;;;;;;;10.54;100.00;93638.84;5076221;28;20460;-79
2023/01/20 05:38:26;;;;;;;13.70;8.77;;;;;;;10.63;100.00;93639.66;5076464;28;20473;-78
2023/01/20 05:40:59;;;;;;;12.00;7.07;;;;;;;10.67;100.00;93653.28;5076678;28;20433;-79
2023/01/20 05:43:26;;;;;;;9.00;5.63;;;;;;;10.65;100.00;93671.00;5076013;28;20517;-79
2023/01/20 05:45:53;;;;;;;7.00;6.30;;;;;;;10.67;100.00;93684.75;5024124;28;20444;-78
2023/01/20 05:48:22;;;;;;;7.90;5.80;;;;;;;10.66;100.00;93673.44;5076065;28;20456;-79
2023/01/20 05:50:50;;;;;;;7.70;5.00;;;;;;;10.70;100.00;93661.69;5074003;28;20570;-79
2023/01/20 05:53:17;;;;;;;6.33;4.67;;;;;;;10.54;100.00;93664.25;5061593;28;20930;-80
2023/01/20 05:55:44;;;;;;;5.90;4.37;;;;;;;10.48;100.00;93655.22;5064925;28;20963;-80
2023/01/20 05:58:25;;;;;;;;;;;;;;;;;;;;;
2023/01/20 06:01:11;;;;;;;5.43;4.33;;;;;;;10.49;100.00;93635.88;5064510;28;20446;-80
2023/01/20 06:03:46;;;;;;;4.93;4.03;;;;;;;10.39;100.00;93629.94;5009226;28;20477;-81
2023/01/20 06:06:24;;;;;;;7.80;3.90;;;;;;;10.36;100.00;93648.63;5066883;28;20496;-79
2023/01/20 06:08:52;;;;;;;9.17;5.10;;;;;;;10.34;100.00;93657.63;5075974;28;20505;-79
2023/01/20 06:11:19;;;;;;;8.30;4.07;;;;;;;10.20;100.00;93666.91;5072246;28;20567;-80
2023/01/20 06:13:47;;;;;;;8.00;3.50;;;;;;;10.17;100.00;93661.97;5056081;28;20451;-79
2023/01/20 06:16:14;;;;;;;6.83;4.83;;;;;;;10.16;100.00;93657.72;5023888;28;20589;-80
2023/01/20 06:18:41;;;;;;;7.70;5.57;;;;;;;10.16;100.00;93649.84;5077433;28;20458;-79
2023/01/20 06:21:07;;;;;;;11.50;5.93;;;;;;;10.15;100.00;93650.81;5075533;28;20465;-80
2023/01/20 06:23:36;;;;;;;6.33;5.83;;;;;;;10.22;100.00;93654.47;5074244;28;20463;-80
2023/01/20 06:26:05;;;;;;;9.07;5.50;;;;;;;10.26;100.00;93654.97;5056754;28;20461;-80
2023/01/20 06:28:32;;;;;;;13.73;9.40;;;;;;;10.17;100.00;93656.72;5065835;28;20443;-80
2023/01/20 06:31:01;;;;;;;8.47;7.50;;;;;;;10.09;100.00;93656.69;5074600;28;20841;-79
2023/01/20 06:33:27;;;;;;;10.00;7.13;;;;;;;10.04;100.00;93661.56;5074734;28;20447;-80
2023/01/20 06:35:55;;;;;;;12.10;10.13;;;;;;;9.93;100.00;93676.59;5074808;28;20443;-80
2023/01/20 06:38:22;;;;;;;13.83;10.57;;;;;;;9.95;100.00;93679.06;5075023;28;20537;-80
2023/01/20 06:40:50;;;;;;;13.40;9.83;;;;;;;9.97;100.00;93679.72;5074747;28;20798;-80
2023/01/20 06:43:17;;;;;;;17.50;10.47;;;;;;;9.92;100.00;93668.91;5074114;28;20770;-80
2023/01/20 06:45:44;;;;;;;8.80;6.80;;;;;;;9.74;100.00;93642.75;5074450;28;20458;-80
2023/01/20 06:48:11;;;;;;;7.87;6.10;;;;;;;9.57;100.00;93622.72;5074293;28;20494;-79
2023/01/20 06:50:37;;;;;;;7.13;6.43;;;;;;;9.60;100.00;93630.25;5074500;28;20533;-80
2023/01/20 06:53:04;;;;;;;7.97;6.93;;;;;;;9.68;100.00;93627.66;5073886;28;20444;-80
2023/01/20 06:55:31;;;;;;;21.80;13.20;;;;;;;9.18;100.00;93606.56;5073781;28;20451;-80
2023/01/20 06:57:59;;;;;;;22.00;11.77;;;;;;;9.21;100.00;93601.03;5074358;28;20497;-80
2023/01/20 07:00:26;;;;;;;14.43;10.17;;;;;;;9.38;100.00;93617.66;5073809;28;20455;-80
2023/01/20 07:02:53;;;;;;;18.67;11.07;;;;;;;9.41;100.00;93606.88;5073662;28;20446;-80
2023/01/20 07:05:19;;;;;;;16.60;10.87;;;;;;;9.55;100.00;93599.28;5073796;28;20868;-80
2023/01/20 07:07:46;;;;;;;9.80;8.00;;;;;;;9.66;100.00;93602.63;5073696;28;20440;-80
2023/01/20 07:10:13;;;;;;;12.60;6.97;;;;;;;9.75;100.00;93622.63;5022396;28;20930;-80
2023/01/20 07:12:40;;;;;;;5.63;4.80;;;;;;;9.74;100.00;93619.19;5073878;28;20441;-80
2023/01/20 07:15:09;;;;;;;5.93;4.33;;;;;;;9.76;100.00;93617.22;5073716;28;20451;-80
2023/01/20 07:17:36;;;;;;;10.40;4.60;;;;;;;9.71;100.00;93611.63;5074475;28;20966;-80
2023/01/20 07:20:02;;;;;;;7.97;5.60;;;;;;;9.78;100.00;93596.94;5073690;28;20871;-80
2023/01/20 07:22:29;;;;;;;5.53;5.03;;;;;;;9.86;100.00;93601.41;5073919;28;21033;-80
2023/01/20 07:24:56;;;;;;;6.10;4.40;;;;;;;9.90;100.00;93603.53;5072940;28;20483;-80
2023/01/20 07:27:23;;;;;;;7.13;5.40;;;;;;;9.95;100.00;93605.69;5073620;28;20441;-80
2023/01/20 07:29:50;;;;;;;5.90;4.53;;;;;;;9.86;100.00;93609.25;5073237;28;20454;-80
2023/01/20 07:32:19;;;;;;;16.27;4.23;;;;;;;9.85;100.00;93605.00;5073126;28;20486;-80
2023/01/20 07:34:46;;;;;;;5.07;4.20;;;;;;;9.89;100.00;93607.16;5073510;28;20474;-80
2023/01/20 07:37:12;;;;;;;2.90;2.60;;;;;;;9.89;100.00;93608.94;5038876;28;20471;-80
2023/01/20 07:39:39;;;;;;;6.10;5.03;;;;;;;9.92;100.00;93617.31;5022387;28;20539;-80
2023/01/20 07:42:06;;;;;;;5.10;4.60;;;;;;;10.01;100.00;93622.56;5073726;28;20451;-79
2023/01/20 07:44:33;;;;;;;12.73;6.47;;;;;;;10.07;100.00;93606.22;5072982;28;20848;-80
2023/01/20 07:47:00;;;;;;;16.20;9.70;;;;;;;10.12;100.00;93612.66;5073146;28;20450;-80
2023/01/20 07:49:29;;;;;;;41.20;15.60;;;;;;;10.13;100.00;93610.84;5073162;28;20479;-80
2023/01/20 07:51:56;;;;;;;21.90;12.37;;;;;;;10.21;100.00;93621.38;5072622;28;20571;-80
2023/01/20 07:54:23;;;;;;;28.47;12.47;;;;;;;10.30;100.00;93630.91;5072891;28;20440;-80
2023/01/20 07:56:50;;;;;;;13.60;8.57;;;;;;;10.37;100.00;93645.00;5072513;28;20437;-80
2023/01/20 07:59:16;;;;;;;13.20;7.90;;;;;;;10.40;100.00;93647.31;5072794;28;20440;-80
2023/01/20 08:01:43;;;;;;;12.70;8.80;;;;;;;10.20;100.00;93645.94;5072622;28;20455;-80
2023/01/20 08:04:11;;;;;;;7.67;5.87;;;;;;;10.19;100.00;93646.91;5072636;28;21025;-80
2023/01/20 08:06:40;;;;;;;4.20;3.80;;;;;;;10.12;100.00;93638.00;5073106;28;20472;-80
2023/01/20 08:09:10;;;;;;;15.63;12.83;;;;;;;9.85;100.00;93628.59;5073402;28;20810;-80
2023/01/20 08:11:37;;;;;;;11.40;5.17;;;;;;;9.88;100.00;93607.31;5072559;28;20982;-80
2023/01/20 08:14:04;;;;;;;11.87;6.77;;;;;;;9.81;100.00;93596.63;5073118;28;20452;-79
2023/01/20 08:16:31;;;;;;;16.93;8.60;;;;;;;9.85;100.00;93597.97;5072892;28;20446;-80
2023/01/20 08:18:58;;;;;;;13.80;10.10;;;;;;;9.85;100.00;93591.91;5072118;28;20454;-80
2023/01/20 08:21:27;;;;;;;15.00;8.60;;;;;;;9.80;100.00;93591.53;5072907;28;20934;-80
2023/01/20 08:23:56;;;;;;;12.67;8.23;;;;;;;9.58;100.00;93595.53;5073714;28;20509;-80
2023/01/20 08:26:24;;;;;;;13.10;8.07;;;;;;;9.70;100.00;93585.59;5072851;28;20447;-80
2023/01/20 08:28:51;;;;;;;21.50;11.10;;;;;;;9.55;100.00;93585.38;5072749;28;20809;-80
2023/01/20 08:31:20;;;;;;;22.53;10.70;;;;;;;9.63;100.00;93574.94;5072091;28;20479;-80
2023/01/20 08:33:48;;;;;;;15.53;10.80;;;;;;;9.78;100.00;93572.53;5072558;28;20971;-80
2023/01/20 08:36:17;;;;;;;15.73;10.80;;;;;;;9.89;100.00;93575.72;5072487;28;20447;-80
2023/01/20 08:38:45;;;;;;;16.40;12.07;;;;;;;10.00;100.00;93565.91;5072664;28;20441;-80
2023/01/20 08:41:15;;;;;;;17.10;11.37;;;;;;;10.02;100.00;93550.84;5072483;28;20451;-80
2023/01/20 08:43:42;;;;;;;11.50;8.67;;;;;;;9.92;100.00;93556.22;5072547;28;20433;-80
2023/01/20 08:46:10;;;;;;;21.67;16.97;;;;;;;9.77;100.00;93542.91;5072171;28;20447;-80
2023/01/20 08:48:39;;;;;;;17.60;10.67;;;;;;;9.66;100.00;93537.97;5072181;28;20520;-80
2023/01/20 08:51:08;;;;;;;16.60;11.80;;;;;;;9.70;100.00;93539.28;5071936;28;20874;-80
2023/01/20 08:53:35;;;;;;;11.93;9.63;;;;;;;9.37;100.00;93530.47;5072152;28;20529;-79
2023/01/20 08:56:03;;;;;;;6.40;5.67;;;;;;;9.10;100.00;93528.03;5072224;28;20493;-79
2023/01/20 08:58:31;;;;;;;11.43;5.00;;;;;;;9.07;100.00;93534.38;5072430;28;20444;-80
2023/01/20 09:01:09;;;;;;;7.40;6.60;;;;;;;9.05;100.00;93527.66;5071958;28;20940;-80
2023/01/20 09:03:36;;;;;;;4.57;4.23;;;;;;;9.00;100.00;93520.28;5072020;28;20500;-80
2023/01/20 09:06:03;;;;;;;8.00;5.83;;;;;;;9.17;100.00;93516.78;5020513;28;21021;-80
2023/01/20 09:08:30;;;;;;;10.67;7.00;;;;;;;9.30;100.00;93514.56;5072069;28;20499;-79
2023/01/20 09:11:02;;;;;;;4.70;4.20;;;;;;;9.29;100.00;93526.00;5071574;28;20458;-79
2023/01/20 09:13:29;;;;;;;9.47;4.70;;;;;;;9.52;100.00;93531.50;5073209;28;20508;-80
2023/01/20 09:15:57;;;;;;;2.67;2.47;;;;;;;9.75;100.00;93544.84;5071957;28;20955;-80
2023/01/20 09:18:24;;;;;;;3.80;2.90;;;;;;;9.93;100.00;93535.09;5072690;28;20469;-80
2023/01/20 09:20:51;;;;;;;6.43;3.77;;;;;;;10.05;100.00;93537.41;5072485;28;20512;-80
2023/01/20 09:23:17;;;;;;;4.70;3.40;;;;;;;10.02;100.00;93528.06;5071662;28;20990;-79
2023/01/20 09:25:44;;;;;;;3.20;2.80;;;;;;;9.93;100.00;93522.00;5071964;28;20481;-80
2023/01/20 09:28:13;;;;;;;2.03;1.87;;;;;;;9.76;100.00;93512.44;5071553;28;20935;-79
2023/01/20 09:30:41;;;;;;;2.20;1.80;;;;;;;9.66;100.00;93517.00;5074787;28;20443;-80
2023/01/20 09:33:09;;;;;;;3.90;1.77;;;;;;;9.91;100.00;93510.88;5075350;28;21054;-79
2023/01/20 09:35:36;;;;;;;2.57;2.37;;;;;;;9.76;100.00;93512.44;5075728;28;20814;-80
2023/01/20 09:43:54;;;;;;;2.30;2.10;;;;;;;9.89;100.00;93499.72;5075891;28;20837;-79
2023/01/20 09:46:30;;;;;;;2.40;2.10;;;;;;;9.91;100.00;93508.25;5075817;28;20498;-79
2023/01/20 09:54:55;;;;;;;2.90;2.70;;;;;;;9.96;100.00;93488.59;5079141;28;20452;-82
2023/01/20 09:57:25;;;;;;;3.40;2.00;;;;;;;10.28;100.00;93480.81;4979706;28;20448;-83
2023/01/20 09:59:59;;;;;;;1.70;1.60;;;;;;;10.62;100.00;93464.09;4974388;28;21042;-84
2023/01/20 10:02:33;;;;;;;2.07;1.93;;;;;;;11.06;100.00;93465.34;4960209;28;20971;-84
2023/01/20 10:05:08;;;;;;;1.70;1.60;;;;;;;11.08;99.22;93470.41;4971300;28;21019;-83
2023/01/20 10:07:42;;;;;;;5.90;5.33;;;;;;;11.05;98.52;93478.63;4974156;28;20519;-82
2023/01/20 10:10:17;;;;;;;2.67;2.00;;;;;;;11.02;95.82;93465.84;4974033;28;20924;-83
2023/01/20 10:12:48;;;;;;;3.00;2.03;;;;;;;11.22;96.01;93461.00;4975559;28;20489;-82
2023/01/20 10:15:20;;;;;;;1.90;1.80;;;;;;;11.53;95.49;93422.47;4976425;28;20532;-83
2023/01/20 10:17:53;;;;;;;1.80;1.60;;;;;;;11.76;93.88;93404.94;4973294;28;20457;-79
2023/01/20 10:20:28;;;;;;;2.10;1.63;;;;;;;11.71;91.17;93416.97;4973912;28;20449;-80
2023/01/20 10:23:00;;;;;;;2.27;1.47;;;;;;;11.92;91.92;93425.09;4972050;28;20456;-79
2023/01/20 10:25:31;;;;;;;2.17;1.20;;;;;;;12.09;93.07;93429.22;4939964;28;20496;-79
2023/01/20 10:28:04;;;;;;;2.40;1.67;;;;;;;12.22;93.69;93430.47;4996646;28;20438;-79
2023/01/20 10:30:35;;;;;;;2.60;1.53;;;;;;;12.31;93.31;93430.22;5053979;28;20446;-79
2023/01/20 10:33:09;;;;;;;2.07;1.70;;;;;;;12.44;92.86;93434.91;5064077;28;20480;-80
2023/01/20 10:35:41;;;;;;;1.60;1.30;;;;;;;12.50;90.82;93433.38;5055438;28;20782;-81
2023/01/20 10:38:18;;;;;;;1.20;1.10;;;;;;;12.51;87.42;93432.38;5061850;28;20447;-80
2023/01/20 10:40:49;;;;;;;1.50;1.40;;;;;;;12.62;89.42;93429.31;5016632;28;20454;-79
2023/01/20 10:43:17;;;;;;;3.67;2.50;;;;;;;12.55;90.97;93437.13;5054723;28;20442;-80
2023/01/20 10:45:57;;;;;;;5.50;1.97;;;;;;;12.07;94.04;93425.97;5053887;28;20500;-79
2023/01/20 10:48:42;;;;;;;1.80;1.70;;;;;;;11.90;95.99;93432.34;5063708;28;20474;-80
2023/01/20 10:51:20;;;;;;;3.20;2.40;;;;;;;11.75;98.01;93423.50;5059735;28;20432;-79
2023/01/20 10:54:04;;;;;;;2.07;1.70;;;;;;;11.56;96.86;93445.78;5071240;28;20912;-81
2023/01/20 10:56:36;;;;;;;1.67;1.57;;;;;;;11.23;96.67;93439.03;5060955;28;20444;-79
2023/01/20 10:59:09;;;;;;;3.83;1.40;;;;;;;11.28;97.57;93426.22;5072880;28;20459;-80
2023/01/20 11:01:36;;;;;;;1.90;1.20;;;;;;;11.38;98.65;93408.44;5030956;28;20449;-79
2023/01/20 11:04:04;;;;;;;3.77;2.77;;;;;;;11.33;97.72;93408.16;5054126;28;20449;-79
2023/01/20 11:06:33;;;;;;;16.27;3.07;;;;;;;11.35;98.81;93406.16;5055196;28;20441;-78
2023/01/20 11:09:16;;;;;;;3.13;2.70;;;;;;;11.39;99.05;93413.53;5062454;28;20453;-79
2023/01/20 11:11:43;;;;;;;8.70;2.57;;;;;;;11.30;97.98;93425.06;5060531;28;20540;-78
2023/01/20 11:14:10;;;;;;;2.17;1.70;;;;;;;11.25;98.20;93432.59;5069707;28;20467;-79
2023/01/20 11:16:39;;;;;;;2.37;2.17;;;;;;;11.18;97.47;93416.72;5065923;28;20499;-80
2023/01/20 11:19:06;;;;;;;2.17;1.97;;;;;;;11.21;97.51;93407.69;5052901;28;20442;-79
2023/01/20 11:21:36;;;;;;;2.33;2.03;;;;;;;11.29;97.63;93402.41;5062628;28;20942;-79
2023/01/20 11:24:23;;;;;;;5.20;1.60;;;;;;;11.15;96.28;93403.94;5054820;28;20456;-79
2023/01/20 11:26:50;;;;;;;5.40;3.30;;;;;;;12.01;100.00;93391.69;5052942;28;20465;-80
2023/01/20 11:29:29;;;;;;;3.20;2.30;;;;;;;12.59;99.42;93412.06;5061837;28;20932;-80
2023/01/20 11:31:58;;;;;;;6.60;2.50;;;;;;;13.55;87.92;93429.66;5058755;28;20491;-83
2023/01/20 11:34:28;;;;;;;4.50;2.10;;;;;;;13.96;82.66;93434.41;5066181;28;20448;-80
2023/01/20 11:37:20;;;;;;;6.33;2.40;;;;;;;13.82;82.66;93427.34;5063405;28;20443;-80
2023/01/20 11:39:59;;;;;;;2.60;2.40;;;;;;;13.34;83.83;93426.97;5013505;28;20454;-81
2023/01/20 11:42:27;;;;;;;1.60;1.50;;;;;;;13.01;84.50;93429.94;5061686;28;20449;-82
2023/01/20 11:44:56;;;;;;;5.20;2.30;;;;;;;12.69;86.15;93435.50;5071493;28;20453;-82
2023/01/20 11:47:25;;;;;;;2.50;2.30;;;;;;;12.50;88.39;93438.66;5062341;28;20446;-81
2023/01/20 11:50:24;;;;;;;8.03;2.90;;;;;;;12.29;89.91;93434.84;5067827;28;20442;-81
2023/01/20 11:52:52;;;;;;;3.70;2.60;;;;;;;12.19;89.97;93438.72;5068914;28;20476;-81